Time;durP1;ratioP1;P1;durP2;ratioP2;P2;SDS_P1;SDS_P2;PMS_P1;PMS_P2;Temp;Humidity;BMP_temperature;BMP_pressure;BME280_temperature;BME280_humidity;BME280_pressure;Samples;Min_cycle;Max_cycle;Signal;HPM_P1;HPM_P2
2021/07/14 00:00:59;;;;;;;31.40;19.42;;;20.30;99.90;;;;;;4132940;28;20539;-75
2021/07/14 00:03:00;;;;;;;26.85;20.88;;;20.30;99.90;;;;;;4131657;28;20395;-75
2021/07/14 00:05:01;;;;;;;30.65;20.17;;;20.30;99.90;;;;;;4134264;28;20861;-75
2021/07/14 00:07:04;;;;;;;29.75;20.15;;;20.40;99.90;;;;;;4137688;28;20092;-74
2021/07/14 00:09:10;;;;;;;32.13;23.45;;;20.30;99.90;;;;;;4126740;28;20034;-75
2021/07/14 00:11:11;;;;;;;30.35;21.33;;;20.30;99.90;;;;;;4138241;28;20474;-74
2021/07/14 00:22:26;;;;;;;34.78;24.00;;;20.30;99.90;;;;;;4125888;28;20030;-75
2021/07/14 00:24:27;;;;;;;33.80;22.23;;;20.20;99.90;;;;;;4142060;28;20204;-75
2021/07/14 00:26:28;;;;;;;25.58;19.25;;;20.20;99.90;;;;;;4137589;28;20105;-75
2021/07/14 00:28:28;;;;;;;32.30;20.60;;;20.20;99.90;;;;;;4143161;28;20034;-74
2021/07/14 00:30:31;;;;;;;34.22;23.75;;;20.30;99.90;;;;;;4140766;28;20030;-75
2021/07/14 00:32:31;;;;;;;30.77;21.33;;;20.20;99.90;;;;;;4143113;28;20389;-75
2021/07/14 00:34:33;;;;;;;31.00;21.38;;;20.30;99.90;;;;;;4137423;28;20117;-75
2021/07/14 00:36:34;;;;;;;32.10;22.67;;;20.30;99.90;;;;;;4122306;28;20026;-75
2021/07/14 00:38:35;;;;;;;29.38;21.33;;;20.30;99.90;;;;;;4135355;28;20045;-76
2021/07/14 00:40:36;;;;;;;32.25;22.63;;;20.30;99.90;;;;;;4142649;28;20049;-75
2021/07/14 00:42:37;;;;;;;32.63;23.65;;;20.30;99.90;;;;;;4138672;28;20977;-76
2021/07/14 00:44:37;;;;;;;28.20;20.10;;;20.20;99.90;;;;;;4141482;28;20034;-76
2021/07/14 00:46:40;;;;;;;29.17;20.77;;;20.20;99.90;;;;;;4141307;28;20034;-76
2021/07/14 00:48:41;;;;;;;26.95;19.55;;;20.20;99.90;;;;;;4138888;28;20048;-76
2021/07/14 00:50:42;;;;;;;27.40;19.48;;;20.20;99.90;;;;;;4134489;28;20039;-76
2021/07/14 00:52:42;;;;;;;32.65;21.00;;;20.20;99.90;;;;;;4136196;28;20040;-76
2021/07/14 00:54:45;;;;;;;31.73;21.85;;;20.30;99.90;;;;;;4137818;28;20026;-76
2021/07/14 00:56:47;;;;;;;23.38;18.02;;;20.30;99.90;;;;;;4140621;28;20049;-75
2021/07/14 00:58:48;;;;;;;28.70;19.88;;;20.30;99.90;;;;;;4140306;28;20042;-75
2021/07/14 01:00:48;;;;;;;26.55;19.65;;;20.30;99.90;;;;;;4134985;28;20039;-75
2021/07/14 01:02:49;;;;;;;25.15;18.92;;;20.30;99.90;;;;;;4141285;28;20049;-75
2021/07/14 01:05:05;;;;;;;25.15;18.45;;;20.30;99.90;;;;;;4130206;28;23772;-75
2021/07/14 01:07:22;;;;;;;27.48;20.10;;;20.30;99.90;;;;;;4140313;28;20096;-74
2021/07/14 01:09:33;;;;;;;27.27;20.10;;;20.30;99.90;;;;;;4135187;28;20060;-75
2021/07/14 01:11:37;;;;;;;30.45;18.63;;;20.30;99.90;;;;;;4137501;28;20042;-75
2021/07/14 01:14:07;;;;;;;22.73;17.67;;;20.30;99.90;;;;;;4134402;28;20037;-75
2021/07/14 01:16:13;;;;;;;28.67;20.60;;;20.30;99.90;;;;;;4141463;28;20382;-76
2021/07/14 01:18:52;;;;;;;27.55;19.90;;;20.30;99.90;;;;;;4143262;28;20479;-75
2021/07/14 01:21:02;;;;;;;27.30;18.83;;;20.30;99.90;;;;;;4142175;28;20034;-75
2021/07/14 01:23:10;;;;;;;29.25;19.75;;;20.30;99.90;;;;;;4138975;28;20037;-74
2021/07/14 01:25:24;;;;;;;25.75;18.33;;;20.30;99.90;;;;;;4139499;28;21214;-74
2021/07/14 01:27:26;;;;;;;26.10;18.73;;;20.30;99.90;;;;;;4117437;28;20491;-75
2021/07/14 01:29:28;;;;;;;24.83;18.45;;;20.30;99.90;;;;;;4139890;28;20478;-75
2021/07/14 01:31:30;;;;;;;26.05;18.30;;;20.30;99.90;;;;;;4142797;28;20041;-75
2021/07/14 01:33:35;;;;;;;25.40;17.63;;;20.30;99.90;;;;;;4141604;28;20514;-75
2021/07/14 01:35:41;;;;;;;28.70;19.17;;;20.30;99.90;;;;;;4123469;28;20030;-74
2021/07/14 01:37:45;;;;;;;33.85;22.33;;;20.30;99.90;;;;;;4141584;28;20367;-73
2021/07/14 01:39:47;;;;;;;28.10;19.38;;;20.30;99.90;;;;;;4141173;28;20116;-73
2021/07/14 01:41:51;;;;;;;25.80;19.33;;;20.30;99.90;;;;;;4141362;28;20370;-74
2021/07/14 01:43:55;;;;;;;23.52;18.67;;;20.20;99.90;;;;;;4138841;28;20042;-74
2021/07/14 01:45:56;;;;;;;29.17;19.67;;;20.20;99.90;;;;;;4136333;28;20040;-75
2021/07/14 01:48:00;;;;;;;22.57;17.30;;;20.20;99.90;;;;;;4144203;28;20052;-74
2021/07/14 01:50:03;;;;;;;27.30;20.35;;;20.20;99.90;;;;;;4140673;28;20336;-74
2021/07/14 01:52:05;;;;;;;;;;;20.20;99.90;;;;;;4133379;28;20121;-74
2021/07/14 01:54:07;;;;;;;30.27;19.55;;;20.20;99.90;;;;;;4144233;28;20545;-74
2021/07/14 01:56:10;;;;;;;38.40;23.65;;;20.10;99.90;;;;;;4137736;28;20038;-74
2021/07/14 01:58:13;;;;;;;31.10;21.98;;;20.10;99.90;;;;;;4135096;28;20073;-74
2021/07/14 02:00:15;;;;;;;30.55;20.50;;;20.00;99.90;;;;;;4139308;28;20038;-75
2021/07/14 02:02:19;;;;;;;26.35;18.65;;;20.00;99.90;;;;;;4145712;28;20899;-74
2021/07/14 02:04:32;;;;;;;32.22;22.10;;;19.90;99.90;;;;;;4135768;28;20034;-74
2021/07/14 02:06:34;;;;;;;30.58;21.80;;;19.90;99.90;;;;;;4134663;28;20041;-74
2021/07/14 02:08:38;;;;;;;31.38;19.75;;;19.90;99.90;;;;;;4138801;28;20042;-74
2021/07/14 02:10:40;;;;;;;31.20;21.77;;;19.90;99.90;;;;;;4143172;28;20068;-74
2021/07/14 02:12:45;;;;;;;38.00;23.50;;;19.80;99.90;;;;;;4135824;28;20038;-74
2021/07/14 02:14:59;;;;;;;27.77;20.35;;;19.80;99.90;;;;;;4140037;28;20061;-74
2021/07/14 02:17:11;;;;;;;29.08;20.60;;;19.80;99.90;;;;;;4133388;28;20042;-75
2021/07/14 02:19:15;;;;;;;27.17;19.73;;;19.80;99.90;;;;;;4136599;28;20539;-73
2021/07/14 02:21:15;;;;;;;24.98;19.00;;;19.80;99.90;;;;;;4134208;28;20387;-74
2021/07/14 02:23:16;;;;;;;26.63;20.20;;;19.80;99.90;;;;;;4132583;28;20042;-74
2021/07/14 02:25:17;;;;;;;29.05;20.85;;;19.80;99.90;;;;;;4139294;28;20084;-74
2021/07/14 02:27:18;;;;;;;27.63;19.58;;;19.80;99.90;;;;;;4139007;28;20526;-74
2021/07/14 02:29:19;;;;;;;25.33;18.88;;;19.80;99.90;;;;;;4138425;28;20133;-74
2021/07/14 02:31:20;;;;;;;30.83;21.83;;;19.80;99.90;;;;;;4137484;28;20510;-74
2021/07/14 02:33:21;;;;;;;29.52;20.25;;;19.80;99.90;;;;;;4135249;28;20496;-74
2021/07/14 02:35:23;;;;;;;28.55;19.92;;;19.80;99.90;;;;;;4137681;28;20057;-74
2021/07/14 02:37:52;;;;;;;25.17;17.63;;;19.80;99.90;;;;;;4143250;28;21603;-74
2021/07/14 02:39:57;;;;;;;27.42;20.92;;;19.80;99.90;;;;;;4156584;28;20069;-74
2021/07/14 02:42:10;;;;;;;25.02;18.58;;;19.80;99.90;;;;;;4140373;28;20045;-74
2021/07/14 02:44:13;;;;;;;24.05;17.65;;;19.80;99.90;;;;;;4140569;28;21312;-74
2021/07/14 02:46:23;;;;;;;27.60;19.52;;;19.80;99.90;;;;;;4133854;28;20038;-74
2021/07/14 02:48:26;;;;;;;23.27;18.10;;;19.80;99.90;;;;;;4133913;28;20038;-74
2021/07/14 02:50:31;;;;;;;28.05;19.55;;;19.80;99.90;;;;;;4140862;28;20038;-74
2021/07/14 02:52:35;;;;;;;26.52;20.25;;;19.80;99.90;;;;;;4138351;28;20505;-74
2021/07/14 02:54:39;;;;;;;31.45;22.25;;;19.80;99.90;;;;;;4137590;28;20030;-74
2021/07/14 02:56:40;;;;;;;29.10;22.20;;;19.80;99.90;;;;;;4140882;28;20045;-74
2021/07/14 02:58:44;;;;;;;24.55;18.52;;;19.80;99.90;;;;;;4137847;28;20034;-74
2021/07/14 03:00:45;;;;;;;27.42;19.83;;;19.70;99.90;;;;;;4140441;28;20096;-74
2021/07/14 03:02:47;;;;;;;33.75;22.77;;;19.70;99.90;;;;;;4140301;28;20030;-74
2021/07/14 03:04:50;;;;;;;;;;;19.70;99.90;;;;;;4136625;28;20042;-74
2021/07/14 03:06:52;;;;;;;28.75;20.08;;;19.70;99.90;;;;;;4135986;28;19913;-74
2021/07/14 03:09:02;;;;;;;31.95;20.10;;;19.70;99.90;;;;;;4131725;28;20050;-74
2021/07/14 03:11:04;;;;;;;32.33;21.35;;;19.70;99.90;;;;;;4137148;28;20547;-74
2021/07/14 03:13:07;;;;;;;22.67;18.73;;;19.70;99.90;;;;;;4140569;28;20459;-74
2021/07/14 03:15:09;;;;;;;26.70;18.08;;;19.70;99.90;;;;;;4135836;28;20057;-74
2021/07/14 03:17:13;;;;;;;26.20;18.58;;;19.70;99.90;;;;;;4134305;28;20034;-74
2021/07/14 03:19:16;;;;;;;24.55;17.88;;;19.70;99.90;;;;;;4134631;28;20044;-74
2021/07/14 03:21:16;;;;;;;;;;;19.70;99.90;;;;;;4125089;28;20222;-74
2021/07/14 03:23:18;;;;;;;25.88;17.80;;;19.70;99.90;;;;;;4140136;28;20352;-74
2021/07/14 03:25:19;;;;;;;22.90;17.67;;;19.70;99.90;;;;;;4137476;28;20057;-74
2021/07/14 03:27:20;;;;;;;26.02;19.27;;;19.70;99.90;;;;;;4140404;28;20057;-74
2021/07/14 03:29:23;;;;;;;39.22;23.85;;;19.70;99.90;;;;;;4137128;28;20049;-75
2021/07/14 03:31:24;;;;;;;25.10;17.67;;;19.70;99.90;;;;;;4137076;28;20117;-74
2021/07/14 03:33:24;;;;;;;33.20;20.13;;;19.70;99.90;;;;;;4137064;28;20104;-74
2021/07/14 03:35:25;;;;;;;27.40;19.73;;;19.70;99.90;;;;;;4137679;28;20490;-74
2021/07/14 03:37:26;;;;;;;27.20;20.00;;;19.70;99.90;;;;;;4138518;28;20441;-74
2021/07/14 03:39:27;;;;;;;30.40;20.10;;;19.70;99.90;;;;;;4133619;28;20038;-74
2021/07/14 03:41:28;;;;;;;35.90;24.05;;;19.70;99.90;;;;;;4137622;28;20152;-74
2021/07/14 03:43:30;;;;;;;31.35;21.52;;;19.70;99.90;;;;;;4135377;28;20046;-75
2021/07/14 03:45:32;;;;;;;26.45;18.27;;;19.70;99.90;;;;;;4135678;28;20042;-74
2021/07/14 03:47:34;;;;;;;26.52;18.58;;;19.70;99.90;;;;;;4139214;28;20038;-74
2021/07/14 03:49:37;;;;;;;33.83;23.05;;;19.70;99.90;;;;;;4133048;28;20095;-75
2021/07/14 03:51:37;;;;;;;;;;;19.70;99.90;;;;;;4136627;28;20037;-74
2021/07/14 03:53:39;;;;;;;25.40;18.63;;;19.60;99.90;;;;;;4137364;28;19913;-74
2021/07/14 03:55:39;;;;;;;33.08;21.92;;;19.70;99.90;;;;;;4133758;28;20084;-74
2021/07/14 03:57:41;;;;;;;29.20;19.52;;;19.60;99.90;;;;;;4131982;28;20031;-74
2021/07/14 03:59:43;;;;;;;29.30;19.42;;;19.60;99.90;;;;;;4133845;28;20041;-74
2021/07/14 04:01:44;;;;;;;29.10;20.50;;;19.60;99.90;;;;;;4134885;28;20498;-74
2021/07/14 04:03:45;;;;;;;29.08;20.30;;;19.60;99.90;;;;;;4139103;28;20050;-74
2021/07/14 04:05:53;;;;;;;29.55;20.80;;;19.60;99.90;;;;;;4140581;28;20038;-74
2021/07/14 04:07:55;;;;;;;28.08;18.80;;;19.50;99.90;;;;;;4139956;28;20042;-74
2021/07/14 04:09:57;;;;;;;30.05;19.83;;;19.60;99.90;;;;;;4135396;28;20601;-74
2021/07/14 04:12:00;;;;;;;30.15;19.88;;;19.50;99.90;;;;;;4133551;28;20735;-73
2021/07/14 04:14:00;;;;;;;30.75;20.10;;;19.50;99.90;;;;;;4135620;28;20518;-74
2021/07/14 04:16:01;;;;;;;25.73;18.27;;;19.50;99.90;;;;;;4139208;28;20044;-74
2021/07/14 04:18:02;;;;;;;25.23;17.95;;;19.50;99.90;;;;;;4135175;28;20113;-74
2021/07/14 04:20:03;;;;;;;28.27;18.60;;;19.60;99.90;;;;;;4133687;28;20046;-74
2021/07/14 04:22:05;;;;;;;23.38;17.52;;;19.50;99.90;;;;;;4140026;28;20034;-74
2021/07/14 04:24:06;;;;;;;22.40;16.73;;;19.50;99.90;;;;;;4138548;28;20275;-74
2021/07/14 04:26:07;;;;;;;25.83;16.58;;;19.60;99.90;;;;;;4135776;28;20035;-74
2021/07/14 04:28:07;;;;;;;25.67;18.05;;;19.60;99.90;;;;;;4136663;28;20131;-74
2021/07/14 04:30:08;;;;;;;23.50;17.23;;;19.60;99.90;;;;;;4134139;28;20042;-73
2021/07/14 04:32:09;;;;;;;23.38;14.88;;;19.60;99.90;;;;;;4134457;28;20496;-73
2021/07/14 04:34:10;;;;;;;21.88;15.75;;;19.60;99.90;;;;;;4134588;28;20121;-73
2021/07/14 04:36:11;;;;;;;25.38;17.52;;;19.60;99.90;;;;;;4128512;28;20554;-73
2021/07/14 04:38:11;;;;;;;20.23;14.95;;;19.50;99.90;;;;;;4133886;28;20037;-73
2021/07/14 04:40:12;;;;;;;21.70;15.50;;;19.60;99.90;;;;;;4137198;28;20505;-73
2021/07/14 04:42:13;;;;;;;22.08;13.77;;;19.50;99.90;;;;;;4139280;28;20694;-73
2021/07/14 04:44:20;;;;;;;25.23;15.30;;;19.60;99.90;;;;;;4134125;28;20092;-74
2021/07/14 04:46:20;;;;;;;21.73;14.27;;;19.50;99.90;;;;;;4134203;28;20097;-74
2021/07/14 04:48:22;;;;;;;15.90;12.50;;;19.50;99.90;;;;;;4133566;28;20029;-73
2021/07/14 04:50:23;;;;;;;19.55;13.70;;;19.60;99.90;;;;;;4131251;28;20088;-73
2021/07/14 04:52:23;;;;;;;26.35;15.18;;;19.50;99.90;;;;;;4132983;28;20581;-74
2021/07/14 04:54:24;;;;;;;20.08;13.95;;;19.50;99.90;;;;;;4127979;28;20035;-74
2021/07/14 04:56:25;;;;;;;17.85;12.07;;;19.50;99.90;;;;;;4138992;28;20037;-73
2021/07/14 04:58:26;;;;;;;16.00;12.07;;;19.50;99.90;;;;;;4127071;28;20042;-73
2021/07/14 05:00:27;;;;;;;15.75;10.93;;;19.60;99.90;;;;;;4131580;28;20053;-74
2021/07/14 05:02:27;;;;;;;14.23;11.10;;;19.60;99.90;;;;;;4133411;28;20510;-73
2021/07/14 05:04:28;;;;;;;16.35;11.43;;;19.60;99.90;;;;;;4138483;28;20044;-73
2021/07/14 05:06:29;;;;;;;16.13;11.40;;;19.60;99.90;;;;;;4134610;28;20092;-74
2021/07/14 05:08:29;;;;;;;19.92;13.65;;;19.60;99.90;;;;;;4119216;28;20123;-74
2021/07/14 05:10:31;;;;;;;16.77;12.45;;;19.60;99.90;;;;;;4128396;28;20030;-73
2021/07/14 05:12:31;;;;;;;19.60;13.77;;;19.60;99.90;;;;;;4134330;28;20030;-74
2021/07/14 05:14:32;;;;;;;18.00;12.05;;;19.50;99.90;;;;;;4142224;28;20682;-73
2021/07/14 05:16:32;;;;;;;17.45;12.00;;;19.50;99.90;;;;;;4142103;28;20096;-73
2021/07/14 05:18:33;;;;;;;17.00;12.05;;;19.50;99.90;;;;;;4137739;28;20034;-74
2021/07/14 05:20:34;;;;;;;14.60;10.57;;;19.50;99.90;;;;;;4133816;28;20050;-73
2021/07/14 05:22:35;;;;;;;16.33;12.02;;;19.60;99.90;;;;;;4129958;28;20054;-73
2021/07/14 05:24:35;;;;;;;14.85;10.60;;;19.60;99.90;;;;;;4138177;28;20030;-73
2021/07/14 05:26:36;;;;;;;15.20;11.25;;;19.60;99.90;;;;;;4142435;28;20030;-74
2021/07/14 05:28:38;;;;;;;18.48;12.70;;;19.60;99.90;;;;;;4145552;28;20512;-73
2021/07/14 05:30:39;;;;;;;18.85;13.48;;;19.60;99.90;;;;;;4143317;28;20057;-74
2021/07/14 05:32:40;;;;;;;16.98;12.43;;;19.60;99.90;;;;;;4139661;28;20450;-74
2021/07/14 05:34:41;;;;;;;15.90;11.45;;;19.60;99.90;;;;;;4142057;28;20041;-73
2021/07/14 05:36:41;;;;;;;15.57;11.25;;;19.60;99.90;;;;;;4142761;28;20045;-75
2021/07/14 05:38:43;;;;;;;16.05;10.55;;;19.60;99.90;;;;;;4118457;28;20059;-74
2021/07/14 05:40:44;;;;;;;16.08;11.07;;;19.60;99.90;;;;;;4143507;28;20026;-74
2021/07/14 05:42:44;;;;;;;16.38;11.18;;;19.60;99.90;;;;;;4133885;28;20519;-74
2021/07/14 05:44:45;;;;;;;14.57;10.10;;;19.60;99.90;;;;;;4128766;28;20041;-74
2021/07/14 05:46:46;;;;;;;13.93;9.35;;;19.60;99.90;;;;;;4136037;28;20701;-74
2021/07/14 05:48:49;;;;;;;19.38;11.93;;;19.60;99.90;;;;;;4135499;28;20060;-74
2021/07/14 05:50:50;;;;;;;15.15;11.02;;;19.60;99.90;;;;;;4138492;28;20048;-74
2021/07/14 05:52:50;;;;;;;13.20;9.63;;;19.60;99.90;;;;;;4132255;28;20034;-74
2021/07/14 05:54:51;;;;;;;20.77;12.98;;;19.60;99.90;;;;;;4139359;28;20486;-73
2021/07/14 05:56:51;;;;;;;16.98;11.02;;;19.60;99.90;;;;;;4136343;28;20029;-74
2021/07/14 05:58:53;;;;;;;16.90;11.05;;;19.60;99.90;;;;;;4137302;28;20034;-74
2021/07/14 06:00:53;;;;;;;15.68;10.10;;;19.60;99.90;;;;;;4138677;28;20402;-73
2021/07/14 06:02:54;;;;;;;19.30;10.30;;;19.60;99.90;;;;;;4138491;28;20043;-73
2021/07/14 06:04:55;;;;;;;17.80;11.55;;;19.70;99.90;;;;;;4136445;28;20689;-74
2021/07/14 06:06:56;;;;;;;15.85;10.73;;;19.60;99.90;;;;;;4137800;28;20030;-73
2021/07/14 06:08:58;;;;;;;17.27;10.93;;;19.60;99.90;;;;;;4134008;28;20042;-73
2021/07/14 06:10:58;;;;;;;17.00;11.35;;;19.70;99.90;;;;;;4138401;28;20026;-74
2021/07/14 06:12:59;;;;;;;18.42;12.00;;;19.70;99.90;;;;;;4136159;28;20104;-74
2021/07/14 06:15:00;;;;;;;18.92;11.75;;;19.60;99.90;;;;;;4137612;28;20148;-75
2021/07/14 06:17:01;;;;;;;21.17;13.88;;;19.60;99.90;;;;;;4121015;28;20467;-75
2021/07/14 06:19:02;;;;;;;16.45;11.40;;;19.60;99.90;;;;;;4136849;28;20088;-75
2021/07/14 06:21:03;;;;;;;19.30;12.85;;;19.60;99.90;;;;;;4134133;28;20113;-75
2021/07/14 06:23:04;;;;;;;18.92;12.35;;;19.60;99.90;;;;;;4140163;28;20029;-75
2021/07/14 06:25:08;;;;;;;20.30;13.98;;;19.60;99.90;;;;;;4132944;28;20434;-75
2021/07/14 06:27:09;;;;;;;16.67;11.25;;;19.60;99.90;;;;;;4131758;28;20123;-74
2021/07/14 06:29:10;;;;;;;17.85;11.77;;;19.60;99.90;;;;;;4136462;28;20422;-75
2021/07/14 06:31:11;;;;;;;16.92;11.70;;;19.70;99.90;;;;;;4137670;28;20161;-74
2021/07/14 06:33:11;;;;;;;17.08;10.80;;;19.60;99.90;;;;;;4139558;28;20124;-74
2021/07/14 06:35:13;;;;;;;18.23;11.88;;;19.70;99.90;;;;;;4135835;28;20542;-75
2021/07/14 06:37:13;;;;;;;15.90;10.88;;;19.60;99.90;;;;;;4136726;28;20038;-75
2021/07/14 06:39:14;;;;;;;18.80;11.40;;;19.60;99.90;;;;;;4140525;28;20038;-74
2021/07/14 06:41:18;;;;;;;17.83;11.20;;;19.60;99.90;;;;;;4118000;28;20049;-74
2021/07/14 06:43:18;;;;;;;15.38;10.63;;;19.60;99.90;;;;;;4128416;28;20565;-74
2021/07/14 06:45:23;;;;;;;18.15;10.70;;;19.70;99.90;;;;;;4137924;28;20049;-74
2021/07/14 06:47:24;;;;;;;18.70;12.10;;;19.60;99.90;;;;;;4135017;28;20116;-75
2021/07/14 06:49:25;;;;;;;17.30;11.77;;;19.60;99.90;;;;;;4134728;28;20064;-75
2021/07/14 06:51:25;;;;;;;15.80;10.57;;;19.60;99.90;;;;;;4139775;28;20117;-75
2021/07/14 06:53:26;;;;;;;15.40;10.18;;;19.60;99.90;;;;;;4135167;28;20030;-75
2021/07/14 06:55:28;;;;;;;16.58;11.60;;;19.60;99.90;;;;;;4136627;28;20034;-75
2021/07/14 06:57:28;;;;;;;15.47;10.77;;;19.60;99.90;;;;;;4134644;28;20126;-75
2021/07/14 06:59:29;;;;;;;17.35;11.90;;;19.60;99.90;;;;;;4138001;28;20062;-75
2021/07/14 07:01:31;;;;;;;15.65;10.40;;;19.60;99.90;;;;;;4133684;28;20161;-74
2021/07/14 07:03:34;;;;;;;17.05;11.70;;;19.60;99.90;;;;;;4134917;28;20371;-74
2021/07/14 07:05:34;;;;;;;13.77;10.25;;;19.60;99.90;;;;;;4135230;28;20042;-75
2021/07/14 07:07:35;;;;;;;14.38;10.68;;;19.50;99.90;;;;;;4128902;28;20108;-74
2021/07/14 07:09:44;;;;;;;15.45;10.68;;;19.50;99.90;;;;;;4133536;28;20021;-75
2021/07/14 07:11:45;;;;;;;15.18;10.07;;;19.50;99.90;;;;;;4136920;28;20064;-75
2021/07/14 07:13:46;;;;;;;14.32;9.55;;;19.60;99.90;;;;;;4138755;28;20438;-73
2021/07/14 07:15:47;;;;;;;13.82;9.32;;;19.50;99.90;;;;;;4134953;28;20124;-73
2021/07/14 07:17:47;;;;;;;15.45;9.88;;;19.60;99.90;;;;;;4135766;28;20038;-73
2021/07/14 07:19:48;;;;;;;15.63;10.98;;;19.60;99.90;;;;;;4137764;28;20160;-73
2021/07/14 07:21:50;;;;;;;13.43;9.02;;;19.60;99.90;;;;;;4117615;28;20133;-73
2021/07/14 07:23:51;;;;;;;11.68;8.25;;;19.60;99.90;;;;;;4135125;28;20045;-72
2021/07/14 07:25:54;;;;;;;19.75;11.30;;;19.60;99.90;;;;;;4136229;28;20041;-74
2021/07/14 07:27:58;;;;;;;17.42;10.80;;;19.60;99.90;;;;;;4133678;28;20475;-74
2021/07/14 07:29:59;;;;;;;15.30;9.98;;;19.60;99.90;;;;;;4136508;28;20034;-74
2021/07/14 07:32:00;;;;;;;13.07;9.85;;;19.60;99.90;;;;;;4136274;28;20140;-74
2021/07/14 07:34:00;;;;;;;13.80;8.60;;;19.50;99.90;;;;;;4136084;28;20944;-74
2021/07/14 07:36:01;;;;;;;15.15;9.70;;;19.60;99.90;;;;;;4138114;28;20540;-74
2021/07/14 07:38:04;;;;;;;14.15;8.55;;;19.60;99.90;;;;;;4111022;28;20092;-74
2021/07/14 07:40:12;;;;;;;14.27;9.23;;;19.50;99.90;;;;;;4106101;28;20030;-74
2021/07/14 07:42:13;;;;;;;15.02;9.95;;;19.50;99.90;;;;;;4105389;28;20030;-74
2021/07/14 07:44:14;;;;;;;12.45;8.70;;;19.50;99.90;;;;;;4124680;28;20049;-73
2021/07/14 07:46:15;;;;;;;12.48;8.90;;;19.50;99.90;;;;;;4131815;28;20045;-73
2021/07/14 07:48:15;;;;;;;10.18;7.78;;;19.50;99.90;;;;;;4135108;28;20038;-73
2021/07/14 07:50:16;;;;;;;11.35;7.90;;;19.50;99.90;;;;;;4137183;28;20093;-74
2021/07/14 07:52:21;;;;;;;11.25;7.38;;;19.50;99.90;;;;;;4132483;28;20034;-73
2021/07/14 07:54:22;;;;;;;10.60;7.20;;;19.50;99.90;;;;;;4132945;28;20050;-73
2021/07/14 07:56:23;;;;;;;10.60;8.35;;;19.50;99.90;;;;;;4132994;28;20034;-73
2021/07/14 07:58:25;;;;;;;13.32;7.45;;;19.50;99.90;;;;;;4132928;28;20037;-73
2021/07/14 08:00:26;;;;;;;11.63;7.68;;;19.50;99.90;;;;;;4134529;28;20034;-73
2021/07/14 08:02:26;;;;;;;9.88;6.70;;;19.50;99.90;;;;;;4129378;28;20030;-74
2021/07/14 08:04:27;;;;;;;11.88;6.30;;;19.50;99.90;;;;;;4136041;28;20037;-74
2021/07/14 08:06:28;;;;;;;9.82;7.45;;;19.50;99.90;;;;;;4137310;28;20033;-73
2021/07/14 08:08:28;;;;;;;8.95;6.35;;;19.50;99.90;;;;;;4132475;28;20121;-74
2021/07/14 08:10:29;;;;;;;11.70;7.47;;;19.50;99.90;;;;;;4134138;28;20029;-73
2021/07/14 08:12:30;;;;;;;9.23;5.90;;;19.50;99.90;;;;;;4139050;28;20026;-73
2021/07/14 08:14:30;;;;;;;12.30;7.85;;;19.50;99.90;;;;;;4137064;28;20768;-73
2021/07/14 08:16:31;;;;;;;9.48;6.78;;;19.50;99.90;;;;;;4135297;28;20054;-73
2021/07/14 08:18:33;;;;;;;9.98;6.32;;;19.50;99.90;;;;;;4134704;28;20507;-73
2021/07/14 08:20:34;;;;;;;11.23;7.03;;;19.50;99.90;;;;;;4133742;28;20030;-73
2021/07/14 08:22:35;;;;;;;8.55;6.43;;;19.50;99.90;;;;;;4133900;28;20073;-74
2021/07/14 08:24:36;;;;;;;9.73;7.13;;;19.40;99.90;;;;;;4129384;28;20076;-73
2021/07/14 08:26:36;;;;;;;11.95;8.40;;;19.40;99.90;;;;;;4137624;28;20030;-73
2021/07/14 08:28:37;;;;;;;12.00;8.93;;;19.40;99.90;;;;;;4135449;28;20041;-73
2021/07/14 08:30:38;;;;;;;12.38;8.45;;;19.40;99.90;;;;;;4133695;28;20041;-73
2021/07/14 08:32:38;;;;;;;13.98;9.02;;;19.30;99.90;;;;;;4134004;28;20039;-73
2021/07/14 08:34:39;;;;;;;8.98;7.00;;;19.30;99.90;;;;;;4130597;28;20029;-73
2021/07/14 08:36:41;;;;;;;15.05;9.02;;;19.30;99.90;;;;;;4138192;28;20050;-73
2021/07/14 08:38:42;;;;;;;11.03;8.30;;;19.30;99.90;;;;;;4138997;28;20056;-73
2021/07/14 08:40:43;;;;;;;10.57;7.40;;;19.30;99.90;;;;;;4138208;28;20049;-73
2021/07/14 08:42:47;;;;;;;12.10;7.85;;;19.30;99.90;;;;;;4136974;28;20453;-73
2021/07/14 08:44:48;;;;;;;11.57;7.47;;;19.30;99.90;;;;;;4110351;28;20038;-74
2021/07/14 08:46:49;;;;;;;13.10;8.43;;;19.30;99.90;;;;;;4133986;28;20093;-74
2021/07/14 08:48:50;;;;;;;18.15;9.25;;;19.20;99.90;;;;;;4133823;28;20668;-73
2021/07/14 08:50:56;;;;;;;14.95;8.00;;;19.20;99.90;;;;;;4139538;28;20044;-74
2021/07/14 08:52:57;;;;;;;17.92;10.57;;;19.30;99.90;;;;;;4141191;28;20123;-73
2021/07/14 08:54:57;;;;;;;15.20;9.50;;;19.30;99.90;;;;;;4135773;28;20042;-74
2021/07/14 08:56:58;;;;;;;11.65;8.68;;;19.30;99.90;;;;;;4138312;28;20184;-74
2021/07/14 08:58:59;;;;;;;19.95;11.43;;;19.30;99.90;;;;;;4136434;28;20042;-73
2021/07/14 09:01:01;;;;;;;16.83;10.57;;;19.30;99.90;;;;;;4129480;28;20118;-73
2021/07/14 09:03:03;;;;;;;16.50;10.43;;;19.20;99.90;;;;;;4140541;28;20482;-73
2021/07/14 09:05:05;;;;;;;13.23;8.73;;;19.20;99.90;;;;;;4135220;28;20041;-74
2021/07/14 09:07:09;;;;;;;9.63;7.30;;;19.20;99.90;;;;;;4131230;28;20121;-74
2021/07/14 09:09:10;;;;;;;10.68;7.88;;;19.30;99.90;;;;;;4137045;28;20320;-73
2021/07/14 09:11:11;;;;;;;9.45;6.55;;;19.30;99.90;;;;;;4137644;28;20042;-76
2021/07/14 09:13:14;;;;;;;11.85;7.93;;;19.40;99.90;;;;;;4136853;28;20056;-75
2021/07/14 09:15:19;;;;;;;12.73;9.15;;;19.40;99.90;;;;;;4139011;28;20042;-74
2021/07/14 09:17:22;;;;;;;13.50;9.50;;;19.30;99.90;;;;;;4137331;28;20042;-74
2021/07/14 09:19:29;;;;;;;18.52;10.43;;;19.30;99.90;;;;;;4132902;28;20058;-73
2021/07/14 09:21:39;;;;;;;13.98;10.32;;;19.20;99.90;;;;;;4140543;28;20042;-74
2021/07/14 09:23:40;;;;;;;13.80;9.55;;;19.20;99.90;;;;;;4139004;28;20034;-74
2021/07/14 09:26:04;;;;;;;14.15;11.02;;;19.20;99.90;;;;;;4139446;28;20552;-74
2021/07/14 09:28:06;;;;;;;17.40;11.60;;;19.20;99.90;;;;;;4138244;28;20034;-74
2021/07/14 09:30:18;;;;;;;16.92;11.88;;;19.10;99.90;;;;;;4130629;28;20038;-73
2021/07/14 09:32:18;;;;;;;18.50;12.40;;;19.20;99.90;;;;;;4119327;28;20097;-74
2021/07/14 09:34:26;;;;;;;19.58;13.43;;;19.20;99.90;;;;;;4138106;28;20042;-72
2021/07/14 09:36:34;;;;;;;20.98;12.82;;;19.20;99.90;;;;;;4139837;28;20120;-74
2021/07/14 09:38:38;;;;;;;20.20;13.45;;;19.20;99.90;;;;;;4138213;28;20053;-74
2021/07/14 09:40:41;;;;;;;17.80;12.05;;;19.20;99.90;;;;;;4137104;28;20130;-74
2021/07/14 09:43:12;;;;;;;21.10;13.95;;;19.20;99.90;;;;;;4134798;28;20041;-74
2021/07/14 09:45:13;;;;;;;25.70;14.68;;;19.20;99.90;;;;;;4136178;28;20121;-74
2021/07/14 09:47:19;;;;;;;27.98;17.05;;;19.20;99.90;;;;;;4131168;28;20065;-74
2021/07/14 09:49:20;;;;;;;26.13;15.95;;;19.20;99.90;;;;;;4134139;28;20517;-74
2021/07/14 09:51:23;;;;;;;21.98;15.02;;;19.20;99.90;;;;;;4118622;28;20034;-74
2021/07/14 09:53:29;;;;;;;25.33;15.43;;;19.10;99.90;;;;;;4136588;28;20395;-74
2021/07/14 09:55:32;;;;;;;27.40;17.27;;;19.20;99.90;;;;;;4136443;28;20038;-74
2021/07/14 09:57:34;;;;;;;23.80;16.38;;;19.20;99.90;;;;;;4138643;28;20034;-73
2021/07/14 09:59:35;;;;;;;23.55;17.27;;;19.10;99.90;;;;;;4132995;28;20406;-72
2021/07/14 10:01:42;;;;;;;24.42;15.43;;;19.10;99.90;;;;;;4134746;28;20037;-73
2021/07/14 10:03:52;;;;;;;22.67;14.90;;;19.10;99.90;;;;;;4109275;28;20042;-73
2021/07/14 10:06:24;;;;;;;22.48;14.52;;;19.20;99.90;;;;;;4134343;28;20845;-73
2021/07/14 10:08:25;;;;;;;22.92;14.57;;;19.20;99.90;;;;;;4136475;28;20046;-73
2021/07/14 10:10:26;;;;;;;22.48;15.23;;;19.20;99.90;;;;;;4131804;28;20100;-72
2021/07/14 10:12:39;;;;;;;23.50;15.57;;;19.20;99.90;;;;;;4138134;28;20030;-72
2021/07/14 10:14:39;;;;;;;28.77;14.52;;;19.20;99.90;;;;;;4136773;28;20053;-72
2021/07/14 10:16:42;;;;;;;21.23;14.23;;;19.20;99.90;;;;;;4138508;28;20062;-72
2021/07/14 10:19:01;;;;;;;19.67;13.88;;;19.20;99.90;;;;;;4136867;28;20137;-72
2021/07/14 10:21:03;;;;;;;18.65;13.75;;;19.30;99.90;;;;;;4137391;28;20053;-72
2021/07/14 10:23:08;;;;;;;21.42;13.90;;;19.20;99.90;;;;;;4135483;28;20045;-72
2021/07/14 10:25:10;;;;;;;25.02;15.93;;;19.20;99.90;;;;;;4137651;28;20104;-73
2021/07/14 10:27:11;;;;;;;18.27;13.20;;;19.30;99.90;;;;;;4129670;28;20030;-72
2021/07/14 10:29:12;;;;;;;22.52;14.27;;;19.30;99.90;;;;;;4138062;28;20496;-73
2021/07/14 10:31:13;;;;;;;17.88;11.52;;;19.30;99.90;;;;;;4138076;28;20041;-73
2021/07/14 10:33:17;;;;;;;15.85;12.00;;;19.40;99.90;;;;;;4130541;28;20038;-73
2021/07/14 10:35:24;;;;;;;16.13;10.77;;;19.40;99.90;;;;;;4140087;28;20052;-74